createdAt,value
2022-11-17T07:31:14.492Z,24.85
2022-11-17T07:33:41.548Z,32.63
2022-11-17T07:36:11.145Z,23.30
2022-11-17T07:38:40.096Z,25.50
2022-11-17T07:41:09.024Z,26.77
2022-11-17T07:43:39.830Z,27.95
2022-11-17T07:46:09.247Z,24.90
2022-11-17T07:48:36.703Z,25.75
2022-11-17T07:51:05.677Z,22.05
2022-11-17T07:53:35.055Z,26.30
2022-11-17T07:56:10.041Z,27.45
2022-11-17T07:58:38.268Z,25.00
2022-11-17T08:01:10.581Z,26.10
2022-11-17T08:03:37.958Z,23.15
2022-11-17T08:06:07.006Z,25.20
2022-11-17T08:08:34.976Z,24.05
2022-11-17T08:11:07.173Z,20.33
2022-11-17T08:13:35.328Z,21.90
2022-11-17T08:16:02.756Z,25.25
2022-11-17T08:18:30.495Z,26.67
2022-11-17T08:21:04.992Z,22.83
2022-11-17T08:23:32.573Z,24.50
2022-11-17T08:25:59.767Z,24.98
2022-11-17T08:28:26.938Z,22.30
2022-11-17T08:30:54.365Z,25.63
2022-11-17T08:33:21.618Z,21.10
2022-11-17T08:35:48.446Z,22.63
2022-11-17T08:38:15.591Z,22.42
2022-11-17T08:40:42.632Z,18.42
2022-11-17T08:43:09.729Z,18.23
2022-11-17T08:45:36.597Z,18.02
2022-11-17T08:48:04.354Z,17.52
2022-11-17T08:50:31.247Z,16.10
2022-11-17T08:52:58.383Z,17.45
2022-11-17T08:55:26.431Z,12.68
2022-11-17T08:57:53.580Z,17.30
2022-11-17T09:00:21.924Z,13.88
2022-11-17T09:02:49.166Z,14.57
2022-11-17T09:05:15.995Z,16.23
2022-11-17T09:07:43.180Z,13.70
2022-11-17T09:10:11.226Z,16.02
2022-11-17T09:12:38.543Z,16.92
2022-11-17T09:15:06.058Z,16.48
2022-11-17T09:17:33.421Z,13.65
2022-11-17T09:20:00.504Z,14.02
2022-11-17T09:22:28.004Z,13.20
2022-11-17T09:24:54.856Z,16.92
2022-11-17T09:27:21.914Z,11.38
2022-11-17T09:29:48.690Z,9.68
2022-11-17T09:32:16.904Z,10.85
2022-11-17T09:34:43.931Z,12.38
2022-11-17T09:37:11.055Z,13.68
2022-11-17T09:39:37.822Z,15.65
2022-11-17T09:42:05.913Z,11.70
2022-11-17T09:44:44.824Z,10.13
2022-11-17T09:47:41.092Z,10.57
2022-11-17T09:50:32.071Z,11.02
2022-11-17T09:53:25.301Z,11.45
2022-11-17T09:56:01.129Z,11.27
2022-11-17T09:58:55.132Z,10.80
2022-11-17T10:01:22.747Z,13.35
2022-11-17T10:03:51.388Z,9.80
2022-11-17T10:06:24.348Z,9.43
2022-11-17T10:09:28.716Z,9.77
2022-11-17T10:12:07.662Z,10.10
2022-11-17T10:14:39.544Z,7.68
2022-11-17T10:17:06.839Z,10.07
2022-11-17T10:19:38.317Z,9.05
2022-11-17T10:22:05.373Z,8.10
2022-11-17T10:24:38.561Z,11.15
2022-11-17T10:27:18.433Z,10.27
2022-11-17T10:30:01.398Z,10.40
2022-11-17T10:32:48.188Z,11.13
2022-11-17T10:35:18.515Z,10.93
2022-11-17T10:38:03.880Z,9.45
2022-11-17T10:40:38.843Z,9.07
2022-11-17T10:43:23.003Z,8.88
2022-11-17T10:45:54.530Z,11.35
2022-11-17T10:48:32.128Z,9.40
2022-11-17T10:51:04.591Z,12.85
2022-11-17T10:53:45.145Z,13.90
2022-11-17T10:56:17.761Z,10.43
2022-11-17T10:59:16.783Z,12.10
2022-11-17T11:01:46.777Z,11.15
2022-11-17T11:04:36.805Z,12.50
2022-11-17T11:07:19.421Z,9.52
2022-11-17T11:09:49.648Z,9.90
2022-11-17T11:12:24.784Z,10.38
2022-11-17T11:14:56.122Z,11.30
2022-11-17T11:17:25.832Z,15.20
2022-11-17T11:19:53.553Z,11.05
2022-11-17T11:22:42.235Z,10.65
2022-11-17T11:25:09.459Z,12.75
2022-11-17T11:28:04.429Z,11.20
2022-11-17T11:30:38.596Z,13.15
2022-11-17T11:33:23.815Z,11.57
2022-11-17T11:35:53.447Z,13.20
2022-11-17T11:39:11.304Z,14.15
2022-11-17T11:42:32.195Z,12.57
2022-11-17T11:44:59.137Z,10.90
2022-11-17T11:47:49.146Z,11.32
2022-11-17T11:50:21.884Z,11.68
2022-11-17T11:52:55.513Z,9.98
2022-11-17T11:55:27.813Z,11.02
2022-11-17T11:58:01.229Z,11.80
2022-11-17T12:03:15.059Z,11.15
2022-11-17T12:06:20.982Z,13.00
2022-11-17T12:08:59.636Z,10.82
2022-11-17T12:11:45.562Z,10.90
2022-11-17T12:14:18.477Z,8.50
2022-11-17T12:16:47.724Z,15.95
2022-11-17T12:19:49.919Z,12.52
2022-11-17T12:22:25.724Z,10.63
2022-11-17T12:24:57.488Z,10.43
2022-11-17T12:27:33.998Z,12.70
2022-11-17T12:30:02.526Z,12.38
2022-11-17T12:32:44.891Z,11.82
2022-11-17T12:35:30.259Z,11.35
2022-11-17T12:38:16.436Z,12.30
2022-11-17T12:40:53.977Z,13.02
2022-11-17T12:43:28.091Z,11.30
2022-11-17T12:46:17.747Z,12.10
2022-11-17T12:48:56.317Z,13.18
2022-11-17T12:51:39.441Z,12.40
2022-11-17T12:54:23.448Z,13.70
2022-11-17T12:56:55.833Z,13.57
2022-11-17T12:59:37.450Z,12.05
2022-11-17T13:02:32.277Z,12.45
2022-11-17T13:05:14.660Z,11.13
2022-11-17T13:07:41.487Z,11.40
2022-11-17T13:10:24.319Z,15.52
2022-11-17T13:12:51.064Z,13.45
2022-11-17T13:15:24.062Z,12.98
2022-11-17T13:17:53.837Z,13.90
2022-11-17T13:20:26.978Z,13.95
2022-11-17T13:22:59.829Z,13.70
2022-11-17T13:25:26.875Z,10.55
2022-11-17T13:27:58.420Z,12.10
2022-11-17T13:30:30.163Z,12.48
2022-11-17T13:32:57.899Z,13.95
2022-11-17T13:35:33.944Z,11.50
2022-11-17T13:38:17.831Z,13.00
2022-11-17T13:40:45.858Z,17.17
2022-11-17T13:43:22.098Z,13.85
2022-11-17T13:45:50.635Z,12.60
2022-11-17T13:48:48.291Z,10.68
2022-11-17T13:51:30.926Z,9.77
2022-11-17T13:54:06.941Z,10.85
2022-11-17T13:56:35.237Z,13.75
2022-11-17T13:59:37.194Z,13.57
2022-11-17T14:02:16.420Z,17.52
2022-11-17T14:05:09.385Z,12.30
2022-11-17T14:07:38.417Z,17.20
2022-11-17T14:10:21.400Z,8.90
2022-11-17T14:12:54.481Z,9.63
2022-11-17T14:15:21.302Z,12.60
2022-11-17T14:17:56.469Z,8.75
2022-11-17T14:20:26.291Z,11.43
2022-11-17T14:23:08.674Z,9.27
2022-11-17T14:25:38.536Z,9.18
2022-11-17T14:28:13.104Z,10.05
2022-11-17T14:30:40.215Z,10.75
2022-11-17T14:33:13.161Z,13.63
2022-11-17T14:35:41.049Z,14.68
2022-11-17T14:38:15.051Z,13.15
2022-11-17T14:43:08.852Z,12.63
2022-11-17T14:45:35.780Z,11.68
2022-11-17T14:48:04.105Z,15.43
2022-11-17T14:50:30.898Z,16.15
2022-11-17T14:52:58.461Z,15.02
2022-11-17T14:55:26.501Z,16.65
2022-11-17T14:57:53.997Z,16.27
2022-11-17T15:00:21.037Z,20.25
2022-11-17T15:02:48.484Z,19.17
2022-11-17T15:05:15.307Z,17.52
2022-11-17T15:07:43.040Z,19.42
2022-11-17T15:10:10.365Z,15.70
2022-11-17T15:12:37.503Z,24.70
2022-11-17T15:15:05.096Z,31.05
2022-11-17T15:17:33.109Z,53.25
2022-11-17T15:19:59.915Z,37.58
2022-11-17T15:22:26.983Z,37.08
2022-11-17T15:24:53.773Z,43.42
2022-11-17T15:27:20.833Z,33.83
2022-11-17T15:29:47.643Z,37.13
2022-11-17T15:32:14.704Z,36.78
2022-11-17T15:34:41.462Z,34.58
2022-11-17T15:37:08.537Z,27.77
2022-11-17T15:39:35.804Z,26.17
2022-11-17T15:42:02.842Z,28.50
2022-11-17T15:44:29.620Z,31.45
2022-11-17T15:46:56.691Z,29.83
2022-11-17T15:49:23.447Z,21.92
2022-11-17T15:51:50.503Z,25.38
2022-11-17T15:54:20.642Z,28.45
2022-11-17T15:56:48.420Z,26.67
2022-11-17T15:59:15.699Z,28.77
2022-11-17T16:01:43.118Z,22.13
2022-11-17T16:04:17.448Z,28.02
2022-11-17T16:06:45.912Z,26.40
2022-11-17T16:09:13.719Z,20.38
2022-11-17T16:11:41.245Z,27.05
2022-11-17T16:14:08.291Z,19.95
2022-11-17T16:16:37.503Z,18.98
2022-11-17T16:19:05.766Z,24.52
2022-11-17T16:21:32.978Z,25.15
2022-11-17T16:24:02.065Z,22.77
2022-11-17T16:26:29.843Z,17.42
2022-11-17T16:29:02.213Z,20.73
2022-11-17T16:31:31.776Z,17.48
2022-11-17T16:33:59.562Z,25.25
2022-11-17T16:36:36.196Z,19.90
2022-11-17T16:39:06.385Z,23.05
2022-11-17T16:41:35.802Z,20.02
2022-11-17T16:44:06.233Z,21.13
2022-11-17T16:46:33.405Z,19.40
2022-11-17T16:49:08.070Z,24.02
2022-11-17T16:51:38.215Z,24.15
2022-11-17T16:54:11.388Z,25.02
2022-11-17T16:56:38.488Z,23.70
2022-11-17T16:59:07.305Z,22.70
2022-11-17T17:01:37.103Z,21.60
2022-11-17T17:04:06.637Z,28.42
2022-11-17T17:06:35.062Z,24.95
2022-11-17T17:11:36.504Z,18.83
2022-11-17T17:14:05.917Z,20.15
2022-11-17T17:16:35.057Z,23.30
2022-11-17T17:19:04.425Z,19.88
2022-11-17T17:21:32.600Z,22.55
2022-11-17T17:23:59.960Z,20.30
2022-11-17T17:26:29.019Z,24.17
2022-11-17T17:28:58.318Z,21.08
2022-11-17T17:31:28.734Z,21.85
2022-11-17T17:33:55.523Z,21.70
2022-11-17T17:36:25.075Z,26.50
2022-11-17T17:38:56.080Z,25.77
2022-11-17T17:41:29.320Z,25.35
2022-11-17T17:43:59.152Z,25.52
2022-11-17T17:46:29.763Z,24.80
2022-11-17T17:48:57.182Z,31.60
2022-11-17T17:51:25.766Z,27.20
2022-11-17T17:53:53.972Z,30.23
2022-11-17T17:56:22.168Z,20.98
2022-11-17T17:58:50.694Z,28.35
2022-11-17T18:01:25.065Z,25.48
2022-11-17T18:03:53.951Z,21.85
2022-11-17T18:06:22.654Z,23.27
2022-11-17T18:08:50.150Z,25.92
2022-11-17T18:11:19.829Z,21.83
2022-11-17T18:13:49.498Z,22.50
2022-11-17T18:16:22.915Z,32.17
2022-11-17T18:18:54.993Z,26.23
2022-11-17T18:21:22.084Z,31.42
2022-11-17T18:23:48.906Z,25.73
2022-11-17T18:26:24.397Z,24.95
2022-11-17T18:28:57.021Z,26.92
2022-11-17T18:31:26.285Z,25.00
2022-11-17T18:34:05.967Z,24.75
2022-11-17T18:36:34.759Z,22.42
2022-11-17T18:39:01.816Z,23.70
2022-11-17T18:41:30.972Z,23.70
2022-11-17T18:43:58.184Z,27.67
2022-11-17T18:46:27.324Z,29.05
2022-11-17T18:48:54.274Z,27.02
2022-11-17T18:51:26.878Z,29.85
2022-11-17T18:53:54.856Z,26.58
2022-11-17T18:56:24.509Z,25.27
2022-11-17T18:58:51.858Z,24.63
2022-11-17T19:01:22.884Z,26.30
2022-11-17T19:03:52.281Z,27.40
2022-11-17T19:06:21.370Z,25.90
2022-11-17T19:08:48.730Z,23.30
2022-11-17T19:11:17.444Z,28.98
2022-11-17T19:13:44.890Z,27.73
2022-11-17T19:16:17.646Z,26.85
2022-11-17T19:18:45.544Z,29.35
2022-11-17T19:21:17.598Z,27.75
2022-11-17T19:23:51.339Z,32.92
2022-11-17T19:26:24.112Z,32.30
2022-11-17T19:28:55.767Z,32.38
2022-11-17T19:31:24.072Z,28.17
2022-11-17T19:33:51.484Z,31.92
2022-11-17T19:36:27.883Z,27.23
2022-11-17T19:38:56.513Z,30.45
2022-11-17T19:41:26.810Z,28.05
2022-11-17T19:43:55.919Z,26.77
2022-11-17T19:46:24.763Z,30.17
2022-11-17T19:48:52.180Z,30.50
2022-11-17T19:51:30.916Z,31.70
2022-11-17T19:54:03.298Z,31.85
2022-11-17T19:56:31.551Z,33.30
2022-11-17T19:58:58.540Z,28.80
2022-11-17T20:01:28.132Z,30.17
2022-11-17T20:03:56.823Z,29.35
2022-11-17T20:06:29.347Z,29.02
2022-11-17T20:08:59.825Z,34.28
2022-11-17T20:11:28.457Z,29.50
2022-11-17T20:13:56.012Z,31.20
2022-11-17T20:16:25.364Z,29.33
2022-11-17T20:18:57.525Z,27.65
2022-11-17T20:21:26.014Z,29.42
2022-11-17T20:23:53.403Z,36.35
2022-11-17T20:26:23.886Z,29.55
2022-11-17T20:28:51.214Z,30.27
2022-11-17T20:31:21.447Z,33.10
2022-11-17T20:33:51.938Z,30.02
2022-11-17T20:36:21.181Z,32.92
2022-11-17T20:39:01.654Z,29.30
2022-11-17T20:41:29.241Z,35.35
2022-11-17T20:43:58.436Z,32.00
2022-11-17T20:46:26.024Z,33.65
2022-11-17T20:48:52.847Z,33.13
2022-11-17T20:51:22.085Z,27.38
2022-11-17T20:53:49.636Z,32.67
2022-11-17T20:56:17.228Z,28.88
2022-11-17T20:58:44.668Z,30.45
2022-11-17T21:01:20.016Z,29.67
2022-11-17T21:03:47.525Z,29.48
2022-11-17T21:06:15.420Z,27.10
2022-11-17T21:08:43.800Z,33.15
2022-11-17T21:11:33.804Z,26.25
2022-11-17T21:14:00.875Z,31.80
2022-11-17T21:16:28.397Z,28.90
2022-11-17T21:18:55.155Z,28.77
2022-11-17T21:21:22.466Z,28.73
2022-11-17T21:23:53.911Z,30.00
2022-11-17T21:26:22.879Z,41.95
2022-11-17T21:28:49.887Z,30.33
2022-11-17T21:31:19.517Z,31.67
2022-11-17T21:33:46.887Z,31.08
2022-11-17T21:36:16.678Z,32.25
2022-11-17T21:38:45.043Z,30.00
2022-11-17T21:41:16.147Z,40.88
2022-11-17T21:43:47.721Z,37.20
2022-11-17T21:46:22.407Z,29.90
2022-11-17T21:48:50.289Z,29.92
2022-11-17T21:51:21.284Z,28.77
2022-11-17T21:53:55.749Z,31.33
2022-11-17T21:56:26.486Z,30.35
2022-11-17T21:58:57.967Z,31.23
2022-11-17T22:01:25.688Z,30.88
2022-11-17T22:03:53.164Z,27.42
2022-11-17T22:06:22.957Z,30.50
2022-11-17T22:08:50.399Z,28.92
2022-11-17T22:11:35.555Z,28.35
2022-11-17T22:14:09.986Z,27.65
2022-11-17T22:16:39.312Z,29.77
2022-11-17T22:19:06.885Z,34.00
2022-11-17T22:21:36.325Z,27.63
2022-11-17T22:24:04.996Z,28.73
2022-11-17T22:26:32.265Z,32.92
2022-11-17T22:28:59.614Z,27.52
2022-11-17T22:31:30.167Z,37.28
2022-11-17T22:33:56.971Z,29.58
2022-11-17T22:36:24.015Z,30.23
2022-11-17T22:38:52.039Z,29.98
2022-11-17T22:41:20.960Z,33.25
2022-11-17T22:43:54.875Z,28.33
2022-11-17T22:46:24.397Z,31.33
2022-11-17T22:48:51.944Z,28.60
2022-11-17T22:51:38.509Z,27.70
2022-11-17T22:54:06.633Z,31.92
2022-11-17T22:56:33.827Z,29.42
2022-11-17T22:59:00.923Z,30.92
2022-11-17T23:01:27.963Z,34.25
2022-11-17T23:03:54.805Z,33.75
2022-11-17T23:06:27.178Z,33.78
2022-11-17T23:08:55.281Z,28.60
2022-11-17T23:11:36.476Z,30.65
2022-11-17T23:14:06.222Z,37.10
2022-11-17T23:16:33.391Z,37.58
2022-11-17T23:19:00.371Z,36.25
2022-11-17T23:21:27.414Z,34.63
2022-11-17T23:23:54.224Z,34.10
2022-11-17T23:26:22.379Z,34.03
2022-11-17T23:28:49.553Z,30.08
2022-11-17T23:31:18.269Z,31.85
2022-11-17T23:33:47.631Z,31.40
2022-11-17T23:36:20.852Z,33.30
2022-11-17T23:38:48.740Z,29.60
2022-11-17T23:41:17.623Z,32.10
2022-11-17T23:43:44.718Z,35.35
2022-11-17T23:46:16.995Z,30.92
2022-11-17T23:48:44.974Z,31.35
2022-11-17T23:51:15.093Z,36.33
2022-11-17T23:53:42.080Z,33.70
2022-11-17T23:56:10.075Z,30.70
2022-11-17T23:58:37.845Z,27.77
